[source: ADDS]
METAR
TAF EDVE 081700Z 0818/0821 VRB03KT CAVOK TEMPO 0818/0821 07006KT EDDV 090150Z VRB01KT CAVOK 20/16 Q1019

TAF EDDV 082300Z 0900/0924 04005KT CAVOK PROB30 TEMPO 0916/0918 08012KT TSRA SCT070CB ETHS 090120Z 05002KT 9999 SCT250 21/15 Q1019 BLU+

ETHC 090120Z 02002KT 9999 SCT220 23/16 Q1018 BLU+

TAF EDVK 081700Z 0818/0903 03004KT CAVOK
TAF
TAF EDVE 081700Z 0818/0821 VRB03KT CAVOK TEMPO 0818/0821 07006KT

TAF EDDV 082300Z 0900/0924 04005KT CAVOK PROB30 TEMPO 0916/0918 08012KT TSRA SCT070CB

TAF EDVK 081700Z 0818/0903 03004KT CAVOK

SR / SS: 03:52 / 18:54 UTC (EDVE 2020-08-09)
Willkommen in der FFG Paul! Viel Erfolg bei der Ausbildung! +++ Wir begrüßen Julian und Martin als neue Mitglieder der FFG! Viel Erfolg bei der Ausbildung! +++ Oliver hat seinen ersten Alleinflug absolviert! Herzlichen Glückwunsch und weiterhin Happy Landings! +++ Wir begrüßen Gianluca in den Reihen der FFG! Viel Erfolg bei der Ausbildung! +++ Schon wieder zwei neue Mitglieder, herzlich Willkommen Andreas und Thomas! +++ Willkommen in der FFG Fabian! +++ Jens hat die praktische Prüfung bestanden! Herzlichen Glückwunsch und allzeit guten Flug! +++ Wir begrüßen Christopher als neues Mitglied der FFG! Always Happy Landings! +++ Flugbetrieb und Ausbildungsbetrieb unter Auflagen wieder möglich. +++ Gero steht ebenfalls als Fluglehrer zur Verfügung! Vielen Dank an Gero und viel Erfolg beim Ausbilden. +++ Ilya hat die Theorieprüfung bestanden! Herzlichen Glückwunsch und weiterhin viel Erfolg für die restliche Ausbildung!

wenig -> mittel -> viel

 

Wetter 

Metar/TAF
GAFOR

Significant Weather Chart
Windkarte
Gewitteranimation
Radar Deutschland 3h
OGIMET

Planung 

NOTAMs
BirdTams
Flugplanaufgabe DFS
Flugplanung
Flugplan Hilfe 
Mil.AIP Deutschland
Flugzeug reserviert

FlightLog 

ICAO Karte, gültig?
Flugdurchführungsplan
AIP-Ausdrucke
Betriebzeiten Flugplätze
90 Tage Regel
bei Nacht: 1 S/L bei Nacht

Dokumente 

ZÜP & Medical gültig
Funksprechzeugnis
Sprachtest
Flugbuch, Lizenzen gültig
Nachweis Erste Hilfe
Ausweis mit Lichtbild

Ausbildung 

Flugauftrag
Ausbildungsnachweis
Nachweis Theorieprüfung
Barograph

Papiere 

Flughandbuch
Bordbuch
Checklisten (3 Stück)
Wägebericht
Versicherungsschein
Tankkarte
Flughafenausweis & Schlüssel

Vorm Flug

Vorflugcheck
Tanken

Sonstiges 

Chocks
Verzurrseile
Ersatzbatterien
Sonnenbrille
Ersatzbrille
Sitzkissen
Motoröl für Langstrecke
Schwimmwesten

Postflight

Maschine säubern & sichern
private Dinge ausräumen
Halle schließen
Bordbuch ausfüllen
eigenes Flugbuch ausfüllen
Abrechnung vornehmen
Landegebühren
Flugplan schliessen
     069-78072500

Letztes NOTAM EDVE
von 11.08.2020 0830Z bis 12.08.2020 1100Z
DUE TO MAINT OF HLZ DVOR/DME THE FLW CHANGES TO SID OCCUR: GPS/FMS OVERLAYS REMAIN UNCHANGED. AMEND HLZ DVOR/DME TO READ HLZ INT. RWY [more]

Letztes NOTAM EDBC
von 24.07.2020 0746Z bis 23.10.2020 2359Z
ILS RWY 26 OUT OF SERVICE.

Letztes NOTAM EDVM
von 11.09.2020 1500Z bis 13.09.2020 1600Z
AD CLSD.

Letztes NOTAM EDOV
von 08.08.2020 0600Z bis 09.08.2020 1850Z
DAILY 0600-SS
PJE 2NM RADIUS CENTERED ON PSN 523744N 0114912E, STENDAL BORSTEL.
GND- FL120

Letztes NOTAM EDDV
von 11.08.2020 0700Z bis 12.08.2020 1400Z
DAILY 0700-1400
TWY N, H, J, K CLSD. TWY L CLSD BTW RWY 09L/27R AND HOLDINGPOINT RWY 09C/27C. TWY F CLSD BTW TWY G AND HOLDINGPOI [more]


Letztes NOTAM EDVK
von 07.08.2020 1120Z bis 21.08.2020 2159Z
RWY END IDENTIFIER LIGHTS RWY 27 U/S.

Letztes NOTAM EDVS
von 03.08.2020 0917Z bis 01.11.2020 2359Z
AD AVBL ONLY FOR HOMEBASED PILOTS.

          aerodata150     Radio38